sensor_id;sensor_type;location;lat;lon;timestamp;P1;durP1;ratioP1;P2;durP2;ratioP2
22768;SDS011;13001;51.968;5.918;2022-10-16T00:01:09;778.58;;;715.30;;
22768;SDS011;13001;51.968;5.918;2022-10-16T00:03:40;785.33;;;722.50;;
22768;SDS011;13001;51.968;5.918;2022-10-16T00:06:08;786.73;;;723.62;;
22768;SDS011;13001;51.968;5.918;2022-10-16T00:08:36;781.02;;;717.35;;
22768;SDS011;13001;51.968;5.918;2022-10-16T00:11:08;779.87;;;717.30;;
22768;SDS011;13001;51.968;5.918;2022-10-16T00:13:36;766.83;;;703.45;;
22768;SDS011;13001;51.968;5.918;2022-10-16T00:16:04;759.75;;;697.42;;
22768;SDS011;13001;51.968;5.918;2022-10-16T00:18:32;755.27;;;692.77;;
22768;SDS011;13001;51.968;5.918;2022-10-16T00:21:04;766.55;;;703.80;;
22768;SDS011;13001;51.968;5.918;2022-10-16T00:23:32;799.05;;;733.42;;
22768;SDS011;13001;51.968;5.918;2022-10-16T00:26:00;810.80;;;743.45;;
22768;SDS011;13001;51.968;5.918;2022-10-16T00:28:28;807.58;;;741.65;;
22768;SDS011;13001;51.968;5.918;2022-10-16T00:30:55;837.83;;;767.92;;
22768;SDS011;13001;51.968;5.918;2022-10-16T00:33:23;861.20;;;789.13;;
22768;SDS011;13001;51.968;5.918;2022-10-16T00:35:50;857.55;;;786.00;;
22768;SDS011;13001;51.968;5.918;2022-10-16T00:38:17;869.50;;;795.83;;
22768;SDS011;13001;51.968;5.918;2022-10-16T00:40:45;862.52;;;789.65;;
22768;SDS011;13001;51.968;5.918;2022-10-16T00:45:58;883.75;;;807.70;;
22768;SDS011;13001;51.968;5.918;2022-10-16T00:48:25;879.00;;;803.88;;
22768;SDS011;13001;51.968;5.918;2022-10-16T00:50:53;877.45;;;802.40;;
22768;SDS011;13001;51.968;5.918;2022-10-16T00:53:20;878.45;;;804.75;;
22768;SDS011;13001;51.968;5.918;2022-10-16T00:55:48;880.78;;;806.63;;
22768;SDS011;13001;51.968;5.918;2022-10-16T00:58:15;876.13;;;802.35;;
22768;SDS011;13001;51.968;5.918;2022-10-16T01:00:43;884.07;;;810.65;;
22768;SDS011;13001;51.968;5.918;2022-10-16T01:03:28;876.15;;;804.35;;
22768;SDS011;13001;51.968;5.918;2022-10-16T01:05:54;869.63;;;799.58;;
22768;SDS011;13001;51.968;5.918;2022-10-16T01:08:26;874.20;;;803.65;;
22768;SDS011;13001;51.968;5.918;2022-10-16T01:10:59;863.52;;;794.10;;
22768;SDS011;13001;51.968;5.918;2022-10-16T01:13:27;855.12;;;787.08;;
22768;SDS011;13001;51.968;5.918;2022-10-16T01:16:14;853.90;;;785.13;;
22768;SDS011;13001;51.968;5.918;2022-10-16T01:18:43;857.15;;;789.25;;
22768;SDS011;13001;51.968;5.918;2022-10-16T01:21:31;849.23;;;782.43;;
22768;SDS011;13001;51.968;5.918;2022-10-16T01:24:04;823.42;;;758.83;;
22768;SDS011;13001;51.968;5.918;2022-10-16T01:29:30;835.20;;;769.92;;
22768;SDS011;13001;51.968;5.918;2022-10-16T01:32:00;814.08;;;750.55;;
22768;SDS011;13001;51.968;5.918;2022-10-16T01:34:38;819.33;;;755.30;;
22768;SDS011;13001;51.968;5.918;2022-10-16T01:37:05;800.38;;;737.10;;
22768;SDS011;13001;51.968;5.918;2022-10-16T01:39:33;808.90;;;744.93;;
22768;SDS011;13001;51.968;5.918;2022-10-16T01:42:09;820.10;;;756.27;;
22768;SDS011;13001;51.968;5.918;2022-10-16T01:44:37;814.40;;;750.72;;
22768;SDS011;13001;51.968;5.918;2022-10-16T01:47:06;802.50;;;739.50;;
22768;SDS011;13001;51.968;5.918;2022-10-16T01:49:35;816.87;;;752.90;;
22768;SDS011;13001;51.968;5.918;2022-10-16T01:52:05;819.00;;;754.65;;
22768;SDS011;13001;51.968;5.918;2022-10-16T01:54:32;837.83;;;773.13;;
22768;SDS011;13001;51.968;5.918;2022-10-16T01:57:01;824.80;;;760.00;;
22768;SDS011;13001;51.968;5.918;2022-10-16T01:59:30;817.28;;;753.95;;
22768;SDS011;13001;51.968;5.918;2022-10-16T02:01:59;821.30;;;756.87;;
22768;SDS011;13001;51.968;5.918;2022-10-16T02:04:29;842.83;;;775.95;;
22768;SDS011;13001;51.968;5.918;2022-10-16T02:06:56;841.40;;;773.52;;
22768;SDS011;13001;51.968;5.918;2022-10-16T02:09:23;843.07;;;774.88;;
22768;SDS011;13001;51.968;5.918;2022-10-16T02:11:51;843.35;;;774.33;;
22768;SDS011;13001;51.968;5.918;2022-10-16T02:14:20;856.02;;;786.65;;
22768;SDS011;13001;51.968;5.918;2022-10-16T02:16:50;860.60;;;791.05;;
22768;SDS011;13001;51.968;5.918;2022-10-16T02:19:18;843.28;;;776.42;;
22768;SDS011;13001;51.968;5.918;2022-10-16T02:29:31;859.33;;;788.30;;
22768;SDS011;13001;51.968;5.918;2022-10-16T02:32:00;861.70;;;789.32;;
22768;SDS011;13001;51.968;5.918;2022-10-16T02:34:29;859.20;;;787.30;;
22768;SDS011;13001;51.968;5.918;2022-10-16T02:36:57;862.97;;;791.00;;
22768;SDS011;13001;51.968;5.918;2022-10-16T02:39:26;838.75;;;768.70;;
22768;SDS011;13001;51.968;5.918;2022-10-16T02:41:54;848.35;;;777.67;;
22768;SDS011;13001;51.968;5.918;2022-10-16T02:44:21;851.45;;;780.37;;
22768;SDS011;13001;51.968;5.918;2022-10-16T02:46:49;848.27;;;777.70;;
22768;SDS011;13001;51.968;5.918;2022-10-16T02:49:16;855.78;;;784.75;;
22768;SDS011;13001;51.968;5.918;2022-10-16T02:51:44;832.15;;;763.05;;
22768;SDS011;13001;51.968;5.918;2022-10-16T02:54:11;855.18;;;784.13;;
22768;SDS011;13001;51.968;5.918;2022-10-16T02:56:39;856.32;;;785.67;;
22768;SDS011;13001;51.968;5.918;2022-10-16T02:59:06;843.20;;;772.98;;
22768;SDS011;13001;51.968;5.918;2022-10-16T03:01:34;842.55;;;772.33;;
22768;SDS011;13001;51.968;5.918;2022-10-16T03:04:01;864.05;;;793.45;;
22768;SDS011;13001;51.968;5.918;2022-10-16T03:06:28;841.95;;;771.48;;
22768;SDS011;13001;51.968;5.918;2022-10-16T03:08:55;848.05;;;777.85;;
22768;SDS011;13001;51.968;5.918;2022-10-16T03:11:23;857.77;;;789.55;;
22768;SDS011;13001;51.968;5.918;2022-10-16T03:13:50;849.50;;;781.97;;
22768;SDS011;13001;51.968;5.918;2022-10-16T03:16:17;835.02;;;768.70;;
22768;SDS011;13001;51.968;5.918;2022-10-16T03:18:47;833.85;;;767.90;;
22768;SDS011;13001;51.968;5.918;2022-10-16T03:21:13;844.17;;;777.58;;
22768;SDS011;13001;51.968;5.918;2022-10-16T03:23:40;848.83;;;781.58;;
22768;SDS011;13001;51.968;5.918;2022-10-16T03:26:08;852.75;;;784.30;;
22768;SDS011;13001;51.968;5.918;2022-10-16T03:28:35;851.25;;;783.30;;
22768;SDS011;13001;51.968;5.918;2022-10-16T03:31:02;842.25;;;775.58;;
22768;SDS011;13001;51.968;5.918;2022-10-16T03:33:31;849.20;;;782.12;;
22768;SDS011;13001;51.968;5.918;2022-10-16T03:35:58;832.47;;;766.62;;
22768;SDS011;13001;51.968;5.918;2022-10-16T03:38:26;836.30;;;769.83;;
22768;SDS011;13001;51.968;5.918;2022-10-16T03:40:53;832.02;;;766.05;;
22768;SDS011;13001;51.968;5.918;2022-10-16T03:43:21;848.62;;;780.70;;
22768;SDS011;13001;51.968;5.918;2022-10-16T03:45:49;839.42;;;772.27;;
22768;SDS011;13001;51.968;5.918;2022-10-16T03:48:17;844.82;;;775.65;;
22768;SDS011;13001;51.968;5.918;2022-10-16T03:50:45;847.10;;;776.92;;
22768;SDS011;13001;51.968;5.918;2022-10-16T03:53:14;853.37;;;784.73;;
22768;SDS011;13001;51.968;5.918;2022-10-16T03:55:42;840.12;;;773.15;;
22768;SDS011;13001;51.968;5.918;2022-10-16T03:58:10;860.53;;;790.77;;
22768;SDS011;13001;51.968;5.918;2022-10-16T04:00:41;846.57;;;776.93;;
22768;SDS011;13001;51.968;5.918;2022-10-16T04:03:08;853.00;;;782.98;;
22768;SDS011;13001;51.968;5.918;2022-10-16T04:05:36;849.85;;;780.60;;
22768;SDS011;13001;51.968;5.918;2022-10-16T04:08:04;851.70;;;781.97;;
22768;SDS011;13001;51.968;5.918;2022-10-16T04:10:31;860.67;;;790.47;;
22768;SDS011;13001;51.968;5.918;2022-10-16T04:12:58;854.90;;;784.85;;
22768;SDS011;13001;51.968;5.918;2022-10-16T04:15:26;856.15;;;786.08;;
22768;SDS011;13001;51.968;5.918;2022-10-16T04:17:53;848.87;;;779.98;;
22768;SDS011;13001;51.968;5.918;2022-10-16T04:20:20;856.58;;;785.55;;
22768;SDS011;13001;51.968;5.918;2022-10-16T04:22:50;848.93;;;778.60;;
22768;SDS011;13001;51.968;5.918;2022-10-16T04:25:17;848.20;;;777.60;;
22768;SDS011;13001;51.968;5.918;2022-10-16T04:27:45;827.63;;;758.63;;
22768;SDS011;13001;51.968;5.918;2022-10-16T04:30:12;834.62;;;765.77;;
22768;SDS011;13001;51.968;5.918;2022-10-16T04:32:40;837.30;;;768.83;;
22768;SDS011;13001;51.968;5.918;2022-10-16T04:35:07;835.67;;;766.52;;
22768;SDS011;13001;51.968;5.918;2022-10-16T04:37:34;836.88;;;767.87;;
22768;SDS011;13001;51.968;5.918;2022-10-16T04:40:02;850.07;;;778.83;;
22768;SDS011;13001;51.968;5.918;2022-10-16T04:42:29;855.15;;;783.17;;
22768;SDS011;13001;51.968;5.918;2022-10-16T04:44:56;845.30;;;774.77;;
22768;SDS011;13001;51.968;5.918;2022-10-16T04:47:24;846.23;;;775.80;;
22768;SDS011;13001;51.968;5.918;2022-10-16T04:49:51;846.97;;;776.03;;
22768;SDS011;13001;51.968;5.918;2022-10-16T04:52:18;856.02;;;784.80;;
22768;SDS011;13001;51.968;5.918;2022-10-16T04:54:47;845.75;;;775.27;;
22768;SDS011;13001;51.968;5.918;2022-10-16T04:57:16;852.62;;;781.83;;
22768;SDS011;13001;51.968;5.918;2022-10-16T04:59:44;855.83;;;784.95;;
22768;SDS011;13001;51.968;5.918;2022-10-16T05:02:11;864.83;;;793.00;;
22768;SDS011;13001;51.968;5.918;2022-10-16T05:04:38;860.97;;;789.93;;
22768;SDS011;13001;51.968;5.918;2022-10-16T05:07:05;865.05;;;794.67;;
22768;SDS011;13001;51.968;5.918;2022-10-16T05:09:33;864.02;;;793.00;;
22768;SDS011;13001;51.968;5.918;2022-10-16T05:12:00;856.30;;;786.02;;
22768;SDS011;13001;51.968;5.918;2022-10-16T05:14:27;844.43;;;773.93;;
22768;SDS011;13001;51.968;5.918;2022-10-16T05:16:55;844.85;;;774.58;;
22768;SDS011;13001;51.968;5.918;2022-10-16T05:19:22;839.85;;;770.27;;
22768;SDS011;13001;51.968;5.918;2022-10-16T05:21:49;856.10;;;784.58;;
22768;SDS011;13001;51.968;5.918;2022-10-16T05:24:16;847.53;;;777.50;;
22768;SDS011;13001;51.968;5.918;2022-10-16T05:26:44;848.42;;;778.23;;
22768;SDS011;13001;51.968;5.918;2022-10-16T05:29:12;846.50;;;776.30;;
22768;SDS011;13001;51.968;5.918;2022-10-16T05:31:39;861.28;;;789.35;;
22768;SDS011;13001;51.968;5.918;2022-10-16T05:34:07;876.13;;;804.42;;
22768;SDS011;13001;51.968;5.918;2022-10-16T05:36:34;863.23;;;792.65;;
22768;SDS011;13001;51.968;5.918;2022-10-16T05:39:02;855.35;;;786.05;;
22768;SDS011;13001;51.968;5.918;2022-10-16T05:41:29;866.10;;;795.05;;
22768;SDS011;13001;51.968;5.918;2022-10-16T05:43:57;854.03;;;783.72;;
22768;SDS011;13001;51.968;5.918;2022-10-16T05:46:24;859.67;;;789.32;;
22768;SDS011;13001;51.968;5.918;2022-10-16T05:48:52;868.67;;;799.07;;
22768;SDS011;13001;51.968;5.918;2022-10-16T05:51:19;849.77;;;781.15;;
22768;SDS011;13001;51.968;5.918;2022-10-16T05:53:47;816.50;;;752.35;;
22768;SDS011;13001;51.968;5.918;2022-10-16T05:56:14;808.35;;;744.97;;
22768;SDS011;13001;51.968;5.918;2022-10-16T05:58:41;822.50;;;757.85;;
22768;SDS011;13001;51.968;5.918;2022-10-16T06:01:11;822.45;;;758.17;;
22768;SDS011;13001;51.968;5.918;2022-10-16T06:03:39;813.10;;;749.62;;
22768;SDS011;13001;51.968;5.918;2022-10-16T06:06:14;801.95;;;738.35;;
22768;SDS011;13001;51.968;5.918;2022-10-16T06:08:41;773.55;;;711.77;;
22768;SDS011;13001;51.968;5.918;2022-10-16T06:11:10;785.73;;;722.90;;
22768;SDS011;13001;51.968;5.918;2022-10-16T06:13:37;781.87;;;720.45;;
22768;SDS011;13001;51.968;5.918;2022-10-16T06:16:06;781.15;;;719.30;;
22768;SDS011;13001;51.968;5.918;2022-10-16T06:18:33;794.47;;;733.30;;
22768;SDS011;13001;51.968;5.918;2022-10-16T06:21:06;775.98;;;715.35;;
22768;SDS011;13001;51.968;5.918;2022-10-16T06:23:29;798.92;;;736.40;;
22768;SDS011;13001;51.968;5.918;2022-10-16T06:26:03;759.67;;;698.70;;
22768;SDS011;13001;51.968;5.918;2022-10-16T06:28:25;764.52;;;703.50;;
22768;SDS011;13001;51.968;5.918;2022-10-16T06:30:58;761.05;;;701.98;;
22768;SDS011;13001;51.968;5.918;2022-10-16T06:33:22;787.27;;;726.13;;
22768;SDS011;13001;51.968;5.918;2022-10-16T06:35:49;807.40;;;744.73;;
22768;SDS011;13001;51.968;5.918;2022-10-16T06:38:16;816.85;;;752.78;;
22768;SDS011;13001;51.968;5.918;2022-10-16T06:40:43;817.40;;;752.60;;
22768;SDS011;13001;51.968;5.918;2022-10-16T06:43:11;824.60;;;758.12;;
22768;SDS011;13001;51.968;5.918;2022-10-16T06:45:38;833.53;;;765.10;;
22768;SDS011;13001;51.968;5.918;2022-10-16T06:48:05;827.50;;;758.07;;
22768;SDS011;13001;51.968;5.918;2022-10-16T06:50:33;831.90;;;763.97;;
22768;SDS011;13001;51.968;5.918;2022-10-16T06:53:00;814.87;;;748.75;;
22768;SDS011;13001;51.968;5.918;2022-10-16T06:55:28;804.63;;;739.58;;
22768;SDS011;13001;51.968;5.918;2022-10-16T06:57:55;780.87;;;717.30;;
22768;SDS011;13001;51.968;5.918;2022-10-16T07:00:22;740.13;;;680.23;;
22768;SDS011;13001;51.968;5.918;2022-10-16T07:02:49;753.02;;;692.22;;
22768;SDS011;13001;51.968;5.918;2022-10-16T07:05:17;914.25;;;836.63;;
22768;SDS011;13001;51.968;5.918;2022-10-16T07:07:44;929.25;;;842.58;;
22768;SDS011;13001;51.968;5.918;2022-10-16T07:10:11;894.00;;;817.50;;
22768;SDS011;13001;51.968;5.918;2022-10-16T07:12:38;888.40;;;813.08;;
22768;SDS011;13001;51.968;5.918;2022-10-16T07:15:06;901.85;;;823.90;;
22768;SDS011;13001;51.968;5.918;2022-10-16T07:17:33;886.70;;;808.53;;
22768;SDS011;13001;51.968;5.918;2022-10-16T07:20:01;891.70;;;810.37;;
22768;SDS011;13001;51.968;5.918;2022-10-16T07:22:28;912.10;;;829.40;;
22768;SDS011;13001;51.968;5.918;2022-10-16T07:24:55;904.72;;;823.20;;
22768;SDS011;13001;51.968;5.918;2022-10-16T07:27:23;939.60;;;854.95;;
22768;SDS011;13001;51.968;5.918;2022-10-16T07:29:50;937.35;;;853.40;;
22768;SDS011;13001;51.968;5.918;2022-10-16T07:32:17;936.25;;;852.60;;
22768;SDS011;13001;51.968;5.918;2022-10-16T07:34:45;935.45;;;849.87;;
22768;SDS011;13001;51.968;5.918;2022-10-16T07:37:12;915.02;;;833.55;;
22768;SDS011;13001;51.968;5.918;2022-10-16T07:39:39;924.58;;;841.77;;
22768;SDS011;13001;51.968;5.918;2022-10-16T07:42:06;908.70;;;825.35;;
22768;SDS011;13001;51.968;5.918;2022-10-16T07:44:34;927.73;;;850.07;;
22768;SDS011;13001;51.968;5.918;2022-10-16T07:47:01;873.17;;;804.17;;
22768;SDS011;13001;51.968;5.918;2022-10-16T07:49:30;881.35;;;810.77;;
22768;SDS011;13001;51.968;5.918;2022-10-16T07:51:57;857.75;;;783.80;;
22768;SDS011;13001;51.968;5.918;2022-10-16T07:54:24;720.20;;;656.87;;
22768;SDS011;13001;51.968;5.918;2022-10-16T07:56:51;606.02;;;558.00;;
22768;SDS011;13001;51.968;5.918;2022-10-16T07:59:19;586.62;;;538.12;;
22768;SDS011;13001;51.968;5.918;2022-10-16T08:01:46;522.35;;;483.00;;
22768;SDS011;13001;51.968;5.918;2022-10-16T08:04:13;561.83;;;520.15;;
22768;SDS011;13001;51.968;5.918;2022-10-16T08:06:40;485.65;;;452.37;;
22768;SDS011;13001;51.968;5.918;2022-10-16T08:09:08;406.80;;;379.20;;
22768;SDS011;13001;51.968;5.918;2022-10-16T08:11:35;405.90;;;379.73;;
22768;SDS011;13001;51.968;5.918;2022-10-16T08:14:02;551.48;;;512.30;;
22768;SDS011;13001;51.968;5.918;2022-10-16T08:16:30;621.47;;;575.50;;
22768;SDS011;13001;51.968;5.918;2022-10-16T08:18:57;607.30;;;563.98;;
22768;SDS011;13001;51.968;5.918;2022-10-16T08:21:24;624.25;;;579.50;;
22768;SDS011;13001;51.968;5.918;2022-10-16T08:23:53;504.90;;;468.60;;
22768;SDS011;13001;51.968;5.918;2022-10-16T08:26:21;487.52;;;453.60;;
22768;SDS011;13001;51.968;5.918;2022-10-16T08:28:51;428.68;;;401.30;;
22768;SDS011;13001;51.968;5.918;2022-10-16T08:31:19;358.02;;;336.10;;
22768;SDS011;13001;51.968;5.918;2022-10-16T08:33:46;325.75;;;306.35;;
22768;SDS011;13001;51.968;5.918;2022-10-16T08:36:14;291.50;;;274.87;;
22768;SDS011;13001;51.968;5.918;2022-10-16T08:38:42;255.20;;;240.82;;
22768;SDS011;13001;51.968;5.918;2022-10-16T08:43:44;317.45;;;299.85;;
22768;SDS011;13001;51.968;5.918;2022-10-16T08:46:30;351.37;;;330.95;;
22768;SDS011;13001;51.968;5.918;2022-10-16T08:48:55;446.40;;;418.95;;
22768;SDS011;13001;51.968;5.918;2022-10-16T08:51:29;411.47;;;385.90;;
22768;SDS011;13001;51.968;5.918;2022-10-16T08:53:57;387.33;;;363.32;;
22768;SDS011;13001;51.968;5.918;2022-10-16T08:56:22;397.33;;;373.00;;
22768;SDS011;13001;51.968;5.918;2022-10-16T08:58:49;507.65;;;476.10;;
22768;SDS011;13001;51.968;5.918;2022-10-16T09:01:19;481.32;;;445.50;;
22768;SDS011;13001;51.968;5.918;2022-10-16T09:06:43;407.60;;;373.37;;
22768;SDS011;13001;51.968;5.918;2022-10-16T09:20:12;456.93;;;421.72;;
22768;SDS011;13001;51.968;5.918;2022-10-16T09:22:36;452.17;;;417.00;;
22768;SDS011;13001;51.968;5.918;2022-10-16T09:25:11;465.65;;;431.43;;
22768;SDS011;13001;51.968;5.918;2022-10-16T09:27:39;485.50;;;448.25;;
22768;SDS011;13001;51.968;5.918;2022-10-16T09:30:17;522.87;;;482.23;;
22768;SDS011;13001;51.968;5.918;2022-10-16T09:32:41;543.65;;;500.32;;
22768;SDS011;13001;51.968;5.918;2022-10-16T09:35:43;533.33;;;491.35;;
22768;SDS011;13001;51.968;5.918;2022-10-16T09:37:44;504.85;;;464.35;;
22768;SDS011;13001;51.968;5.918;2022-10-16T09:40:13;494.80;;;455.75;;
22768;SDS011;13001;51.968;5.918;2022-10-16T09:42:40;483.95;;;444.93;;
22768;SDS011;13001;51.968;5.918;2022-10-16T09:45:19;488.77;;;448.47;;
22768;SDS011;13001;51.968;5.918;2022-10-16T09:47:37;470.15;;;432.05;;
22768;SDS011;13001;51.968;5.918;2022-10-16T09:50:15;494.70;;;454.40;;
22768;SDS011;13001;51.968;5.918;2022-10-16T09:52:34;466.32;;;429.40;;
22768;SDS011;13001;51.968;5.918;2022-10-16T09:55:09;509.05;;;467.22;;
22768;SDS011;13001;51.968;5.918;2022-10-16T09:57:30;484.83;;;444.43;;
22768;SDS011;13001;51.968;5.918;2022-10-16T09:59:57;501.55;;;460.30;;
22768;SDS011;13001;51.968;5.918;2022-10-16T10:02:30;532.75;;;489.25;;
22768;SDS011;13001;51.968;5.918;2022-10-16T10:04:56;555.22;;;509.22;;
22768;SDS011;13001;51.968;5.918;2022-10-16T10:07:24;490.75;;;450.38;;
22768;SDS011;13001;51.968;5.918;2022-10-16T10:09:52;508.90;;;466.27;;
22768;SDS011;13001;51.968;5.918;2022-10-16T10:12:24;521.45;;;477.47;;
22768;SDS011;13001;51.968;5.918;2022-10-16T10:14:50;513.10;;;470.30;;
22768;SDS011;13001;51.968;5.918;2022-10-16T10:17:21;530.10;;;486.50;;
22768;SDS011;13001;51.968;5.918;2022-10-16T10:19:53;481.87;;;441.75;;
22768;SDS011;13001;51.968;5.918;2022-10-16T10:22:25;488.37;;;447.07;;
22768;SDS011;13001;51.968;5.918;2022-10-16T10:25:01;465.05;;;426.65;;
22768;SDS011;13001;51.968;5.918;2022-10-16T10:28:13;522.83;;;481.67;;
22768;SDS011;13001;51.968;5.918;2022-10-16T10:32:37;470.48;;;432.75;;
22768;SDS011;13001;51.968;5.918;2022-10-16T10:42:51;476.90;;;437.80;;
22768;SDS011;13001;51.968;5.918;2022-10-16T10:45:20;550.12;;;505.20;;
22768;SDS011;13001;51.968;5.918;2022-10-16T10:47:55;522.08;;;478.12;;
22768;SDS011;13001;51.968;5.918;2022-10-16T10:52:55;596.40;;;545.65;;
22768;SDS011;13001;51.968;5.918;2022-10-16T10:55:33;615.17;;;563.85;;
22768;SDS011;13001;51.968;5.918;2022-10-16T10:58:19;631.97;;;578.80;;
22768;SDS011;13001;51.968;5.918;2022-10-16T11:06:11;651.48;;;597.42;;
22768;SDS011;13001;51.968;5.918;2022-10-16T11:08:47;675.67;;;618.77;;
22768;SDS011;13001;51.968;5.918;2022-10-16T11:11:15;668.65;;;612.83;;
22768;SDS011;13001;51.968;5.918;2022-10-16T11:13:51;683.25;;;624.75;;
22768;SDS011;13001;51.968;5.918;2022-10-16T11:16:19;678.00;;;620.48;;
22768;SDS011;13001;51.968;5.918;2022-10-16T11:18:49;648.67;;;594.85;;
22768;SDS011;13001;51.968;5.918;2022-10-16T11:21:16;691.45;;;632.83;;
22768;SDS011;13001;51.968;5.918;2022-10-16T11:23:46;658.25;;;603.55;;
22768;SDS011;13001;51.968;5.918;2022-10-16T11:26:17;661.52;;;606.83;;
22768;SDS011;13001;51.968;5.918;2022-10-16T11:28:48;587.05;;;542.03;;
22768;SDS011;13001;51.968;5.918;2022-10-16T11:31:22;657.02;;;602.40;;
22768;SDS011;13001;51.968;5.918;2022-10-16T11:34:02;540.38;;;500.30;;
22768;SDS011;13001;51.968;5.918;2022-10-16T11:36:49;577.60;;;533.72;;
22768;SDS011;13001;51.968;5.918;2022-10-16T11:39:26;500.83;;;466.35;;
22768;SDS011;13001;51.968;5.918;2022-10-16T11:41:53;578.08;;;533.92;;
22768;SDS011;13001;51.968;5.918;2022-10-16T11:49:47;581.40;;;535.75;;
22768;SDS011;13001;51.968;5.918;2022-10-16T11:52:17;595.70;;;549.05;;
22768;SDS011;13001;51.968;5.918;2022-10-16T11:54:55;622.13;;;571.20;;
22768;SDS011;13001;51.968;5.918;2022-10-16T11:57:33;598.78;;;548.92;;
22768;SDS011;13001;51.968;5.918;2022-10-16T12:00:05;601.22;;;551.37;;
22768;SDS011;13001;51.968;5.918;2022-10-16T12:05:22;640.10;;;583.80;;
22768;SDS011;13001;51.968;5.918;2022-10-16T12:08:02;626.00;;;571.15;;
22768;SDS011;13001;51.968;5.918;2022-10-16T12:10:29;647.00;;;588.37;;
22768;SDS011;13001;51.968;5.918;2022-10-16T12:12:58;580.33;;;532.42;;
22768;SDS011;13001;51.968;5.918;2022-10-16T12:15:27;604.53;;;553.73;;
22768;SDS011;13001;51.968;5.918;2022-10-16T12:17:55;608.15;;;554.72;;
22768;SDS011;13001;51.968;5.918;2022-10-16T12:20:24;607.05;;;552.52;;
22768;SDS011;13001;51.968;5.918;2022-10-16T12:22:56;588.30;;;536.77;;
22768;SDS011;13001;51.968;5.918;2022-10-16T12:25:25;599.25;;;547.58;;
22768;SDS011;13001;51.968;5.918;2022-10-16T12:27:55;605.77;;;553.25;;
22768;SDS011;13001;51.968;5.918;2022-10-16T12:30:23;532.85;;;489.17;;
22768;SDS011;13001;51.968;5.918;2022-10-16T12:32:58;558.55;;;512.70;;
22768;SDS011;13001;51.968;5.918;2022-10-16T12:35:27;560.97;;;512.90;;
22768;SDS011;13001;51.968;5.918;2022-10-16T12:38:04;589.85;;;538.72;;
22768;SDS011;13001;51.968;5.918;2022-10-16T12:40:25;591.65;;;541.33;;
22768;SDS011;13001;51.968;5.918;2022-10-16T12:42:53;551.22;;;503.50;;
22768;SDS011;13001;51.968;5.918;2022-10-16T12:45:30;596.80;;;543.95;;
22768;SDS011;13001;51.968;5.918;2022-10-16T12:47:59;594.28;;;542.67;;
22768;SDS011;13001;51.968;5.918;2022-10-16T12:50:34;575.65;;;524.00;;
22768;SDS011;13001;51.968;5.918;2022-10-16T12:53:03;594.75;;;542.03;;
22768;SDS011;13001;51.968;5.918;2022-10-16T12:55:33;590.40;;;536.92;;
22768;SDS011;13001;51.968;5.918;2022-10-16T13:00:32;589.78;;;537.38;;
22768;SDS011;13001;51.968;5.918;2022-10-16T13:08:30;577.70;;;528.62;;
22768;SDS011;13001;51.968;5.918;2022-10-16T13:11:03;543.67;;;497.73;;
22768;SDS011;13001;51.968;5.918;2022-10-16T13:19:14;597.77;;;545.27;;
22768;SDS011;13001;51.968;5.918;2022-10-16T13:24:15;609.27;;;554.48;;
22768;SDS011;13001;51.968;5.918;2022-10-16T13:26:41;598.42;;;545.88;;
22768;SDS011;13001;51.968;5.918;2022-10-16T13:29:09;602.05;;;548.13;;
22768;SDS011;13001;51.968;5.918;2022-10-16T13:31:37;606.02;;;553.00;;
22768;SDS011;13001;51.968;5.918;2022-10-16T13:34:05;599.73;;;546.10;;
22768;SDS011;13001;51.968;5.918;2022-10-16T13:36:43;593.97;;;541.27;;
22768;SDS011;13001;51.968;5.918;2022-10-16T13:39:14;596.30;;;544.15;;
22768;SDS011;13001;51.968;5.918;2022-10-16T13:41:43;575.92;;;525.27;;
22768;SDS011;13001;51.968;5.918;2022-10-16T13:44:13;584.90;;;533.15;;
22768;SDS011;13001;51.968;5.918;2022-10-16T13:46:40;573.42;;;522.05;;
22768;SDS011;13001;51.968;5.918;2022-10-16T13:49:18;585.85;;;534.22;;
22768;SDS011;13001;51.968;5.918;2022-10-16T13:51:53;574.85;;;524.67;;
22768;SDS011;13001;51.968;5.918;2022-10-16T13:54:10;588.48;;;536.52;;
22768;SDS011;13001;51.968;5.918;2022-10-16T13:56:38;594.55;;;542.15;;
22768;SDS011;13001;51.968;5.918;2022-10-16T13:59:22;577.62;;;526.70;;
22768;SDS011;13001;51.968;5.918;2022-10-16T14:01:42;583.05;;;532.33;;
22768;SDS011;13001;51.968;5.918;2022-10-16T14:04:11;578.33;;;526.60;;
22768;SDS011;13001;51.968;5.918;2022-10-16T14:06:42;586.12;;;535.55;;
22768;SDS011;13001;51.968;5.918;2022-10-16T14:09:24;578.35;;;528.15;;
22768;SDS011;13001;51.968;5.918;2022-10-16T14:11:57;575.22;;;525.35;;
22768;SDS011;13001;51.968;5.918;2022-10-16T14:14:21;584.80;;;534.63;;
22768;SDS011;13001;51.968;5.918;2022-10-16T14:16:49;562.70;;;513.43;;
22768;SDS011;13001;51.968;5.918;2022-10-16T14:19:20;576.30;;;527.02;;
22768;SDS011;13001;51.968;5.918;2022-10-16T14:21:49;507.27;;;463.87;;
22768;SDS011;13001;51.968;5.918;2022-10-16T14:24:27;533.73;;;487.27;;
22768;SDS011;13001;51.968;5.918;2022-10-16T14:26:54;503.58;;;462.05;;
22768;SDS011;13001;51.968;5.918;2022-10-16T14:29:23;495.10;;;453.97;;
22768;SDS011;13001;51.968;5.918;2022-10-16T14:32:01;505.15;;;463.90;;
22768;SDS011;13001;51.968;5.918;2022-10-16T14:34:28;445.00;;;407.58;;
22768;SDS011;13001;51.968;5.918;2022-10-16T14:36:57;456.67;;;418.20;;
22768;SDS011;13001;51.968;5.918;2022-10-16T14:39:25;486.95;;;447.37;;
22768;SDS011;13001;51.968;5.918;2022-10-16T14:41:54;497.17;;;456.27;;
22768;SDS011;13001;51.968;5.918;2022-10-16T14:44:26;488.95;;;448.88;;
22768;SDS011;13001;51.968;5.918;2022-10-16T14:46:51;481.57;;;443.37;;
22768;SDS011;13001;51.968;5.918;2022-10-16T14:49:19;474.32;;;435.73;;
22768;SDS011;13001;51.968;5.918;2022-10-16T14:51:47;495.48;;;455.55;;
22768;SDS011;13001;51.968;5.918;2022-10-16T14:54:15;482.73;;;443.70;;
22768;SDS011;13001;51.968;5.918;2022-10-16T14:56:47;456.37;;;419.23;;
22768;SDS011;13001;51.968;5.918;2022-10-16T14:59:19;459.37;;;421.07;;
22768;SDS011;13001;51.968;5.918;2022-10-16T15:01:44;445.83;;;409.57;;
22768;SDS011;13001;51.968;5.918;2022-10-16T15:04:11;439.60;;;403.00;;
22768;SDS011;13001;51.968;5.918;2022-10-16T15:06:39;456.60;;;419.63;;
22768;SDS011;13001;51.968;5.918;2022-10-16T15:09:07;439.37;;;403.70;;
22768;SDS011;13001;51.968;5.918;2022-10-16T15:11:34;454.47;;;416.77;;
22768;SDS011;13001;51.968;5.918;2022-10-16T15:14:01;444.07;;;406.07;;
22768;SDS011;13001;51.968;5.918;2022-10-16T15:16:29;475.87;;;436.87;;
22768;SDS011;13001;51.968;5.918;2022-10-16T15:18:57;460.97;;;421.57;;